»·PEaware :: BLADE26 KSPS-KSPS

BLADE26 :: KSPS-KSPS

FLIGHT INFORMATION

Flight Status: Arrived
Operator: Unknown
More flights by this operator :: More flights under this callsign
Pilot: 80 FTW ENJJPT (22981)
Aircraft: BEECH AIRCRAFT T-6A TEXAN
(TEX2)
More flights by this aircraft type
Origin: KSPS Sheppard AFB/Wichita Falls Mu
United States
Destination: KSPS Sheppard AFB/Wichita Falls Mu
United States
More flights between these airports :: More routes between these airports
Route: +
File this flight plan on PilotEdge
Remarks:
Altitude:
(Current/Filed)
0ft
Speed:
(Current/Filed)
0kts
Departed: 06-May-20 12:16 PM
Arrived: 06-May-20 12:51 PM
Distance/Time
Traveled:
1nm/0:35
Distance/Time
To Go:
Arrived

Flight Plot

Page will automatically refresh every two minutes.

Flight plan parsing failed; only flown route is shown


Map Options




Map Legend


Flown Route
Filed Route
Departure Airport
Arrival Airport
Navaid (VOR, NDB)
Fix

Horizontal Profiles

Position Reports

Time Latitude Longitude Heading Altitude Ground
Speed
06-May-20 12:10 34.009285 -98.498732 65 1022ft 0kts
06-May-20 12:11 34.010750 -98.495151 60 1022ft 5kts
06-May-20 12:12 34.010873 -98.494345 113 1022ft 0kts
06-May-20 12:13 34.010858 -98.494304 114 1022ft 0kts
06-May-20 12:14 34.010854 -98.493898 63 1022ft 1kts
06-May-20 12:15 34.007832 -98.491571 158 1023ft 93kts
06-May-20 12:16 33.982935 -98.459646 64 1986ft 201kts
06-May-20 12:17 34.031410 -98.464235 332 1988ft 232kts
06-May-20 12:18 34.062765 -98.510216 220 1971ft 222kts
06-May-20 12:19 34.005813 -98.490767 156 2035ft 218kts
06-May-20 12:20 34.026709 -98.484373 329 2029ft 116kts
06-May-20 12:21 34.006904 -98.491161 157 1035ft 99kts
06-May-20 12:22 33.985636 -98.459300 51 2066ft 195kts
06-May-20 12:23 34.035514 -98.469678 340 2082ft 208kts
06-May-20 12:24 34.060945 -98.510876 216 2031ft 207kts
06-May-20 12:25 34.006461 -98.490876 156 1993ft 210kts
06-May-20 12:26 34.011207 -98.478791 332 1957ft 150kts
06-May-20 12:27 34.006947 -98.490543 154 1325ft 153kts
06-May-20 12:28 34.014305 -98.483235 330 1877ft 147kts
06-May-20 12:29 33.996944 -98.486424 156 1266ft 154kts
06-May-20 12:30 33.994052 -98.445036 351 2069ft 198kts
06-May-20 12:31 34.046696 -98.468267 346 2055ft 189kts
06-May-20 12:32 34.091610 -98.485268 330 1558ft 157kts
06-May-20 12:33 34.072352 -98.508967 188 1582ft 143kts
06-May-20 12:34 34.032761 -98.503597 156 1510ft 143kts
06-May-20 12:35 33.999705 -98.487675 158 1266ft 145kts
06-May-20 12:36 34.013483 -98.481677 339 2013ft 141kts
06-May-20 12:37 34.007623 -98.491542 157 1040ft 102kts
06-May-20 12:38 33.986168 -98.458773 59 2002ft 207kts
06-May-20 12:39 34.037689 -98.465249 333 2036ft 226kts
06-May-20 12:40 34.053336 -98.507652 189 2030ft 214kts
06-May-20 12:41 34.004399 -98.490159 158 3990ft 146kts
06-May-20 12:42 34.021441 -98.482022 321 2576ft 126kts
06-May-20 12:43 33.999361 -98.487583 155 1213ft 127kts
06-May-20 12:44 33.995792 -98.446400 17 2093ft 199kts
06-May-20 12:45 34.049798 -98.472228 333 1964ft 221kts
06-May-20 12:46 34.041129 -98.507677 159 1952ft 210kts
06-May-20 12:47 33.986063 -98.481327 156 1969ft 215kts
06-May-20 12:48 34.013283 -98.479444 326 1953ft 122kts
06-May-20 12:49 34.010050 -98.492819 157 1026ft 95kts
06-May-20 12:50 34.000192 -98.488162 154 1022ft 24kts
06-May-20 12:51 33.995683 -98.486708 242 1022ft 2kts
06-May-20 12:52 33.994540 -98.487268 172 1022ft 4kts
06-May-20 12:53 33.993426 -98.487277 179 1022ft 33kts
06-May-20 12:54 33.989007 -98.488125 246 1022ft 3kts
06-May-20 12:55 33.986976 -98.492669 246 1022ft 11kts
06-May-20 12:56 34.000001 -98.503881 158 1022ft 0kts
06-May-20 12:57 34.000001 -98.503881 158 1022ft 0kts
06-May-20 12:58 34.000001 -98.503881 158 1022ft 0kts
06-May-20 12:59 34.000001 -98.503881 158 1022ft 0kts
06-May-20 13:00 34.000001 -98.503881 158 1022ft 0kts
06-May-20 13:01 34.000001 -98.503881 158 1022ft 0kts
06-May-20 13:03 34.000001 -98.503881 158 1022ft 0kts
06-May-20 13:04 34.000001 -98.503881 158 1022ft 0kts
06-May-20 13:05 34.000001 -98.503881 158 1022ft 0kts

Navigation Log

Ident Type
Flight plan parsing failed, navigation log unavailable